Airfield :
LOGIN :

Register | Disclaimer

   EN    FR    IT 

 










Legend :    VFR   Marginal VFR   IFR   Intensive IFR   Very Intensive IFR
Visi :
Ceiling :
>= 8 km
>= 3000ft
5 to 8 km
1000 to 3000 ft
1500m to 5 km
500 to 1000 ft
800 to 1500m
200 to 500 ft
< 800m
< 200 ft
Symbols :   Thunderstorms  Fog  Heavy snow  Heavy precipitations  Wind > 20 kt
SIGMETs :     Misc.  Thunderstorms  Icing  Turbulence  Mountain Waves  Volcanic Ashes







- Airport Elevation : 794 ft


LKCV - Čáslav Air Base

CURRENT METAR :
  • 210239Z VRB02KT 0300 FG VV001 09/09 Q1016 RMK RED RED

EXPIRED METARs :
  • 210222Z VRB02KT 0500 FG VV002 09/09 Q1016 RMK RED RED
  • 210200Z 29006KT 1000 BR BKN002 09/09 Q1016 NOSIG RMK AMB AMB
  • 210151Z 29006KT 1100 BR BKN003 09/09 Q1016 RMK AMB AMB
  • 210100Z 13003KT 6000 NSC 11/10 Q1016 NOSIG RMK WHT WHT
  • 210000Z 13005KT 0300 FG VV001 11/11 Q1016 NOSIG

TAF TAF LKCV
Valid from the 21 at 00:00 until the 22 at 00:00 UTC


202300Z 2100/2200 03004KT 0300 FG OVC002
TEMPO 2100/2109 2000 BR BKN003
BECMG 2109/2111 4000 BR BKN012
No reported NOTAMs for that airfield.



MET'MAP, your aeronautical weather chart ! - Copyright ORBIFLY December 2007 - Disclaimer

ORBIFLY MET'MAP TEAM :

Programming & Development : Alexandra Zaïnal
Concept & Development : Baudouin d'Aumeries
Co-Development & Prog : Marc-Olivier Méhu
Technical & hardware support : Manuel Goepfert

Contact : metmap@orbifly.com




SOURCES & CREDITS :

   NOAA